Time;durP1;ratioP1;P1;durP2;ratioP2;P2;SDS_P1;SDS_P2;PMS_P1;PMS_P2;Temp;Humidity;BMP_temperature;BMP_pressure;BME280_temperature;BME280_humidity;BME280_pressure;Samples;Min_cycle;Max_cycle;Signal;HPM_P1;HPM_P2
2024/04/23 00:01:56;;;;;;;6.97;4.15;;;3.50;99.90;;;;;;5344954;26;20001;-52
2024/04/23 00:04:22;;;;;;;5.80;3.72;;;3.40;99.90;;;;;;5314686;26;20336;-50
2024/04/23 00:06:57;;;;;;;5.88;4.63;;;3.40;99.90;;;;;;5314493;26;19997;-55
2024/04/23 00:09:23;;;;;;;;;;;3.20;99.90;;;;;;5345835;26;19996;-52
2024/04/23 00:11:48;;;;;;;;;;;3.20;99.90;;;;;;5344765;26;20392;-52
2024/04/23 00:14:14;;;;;;;4.83;4.20;;;3.10;99.90;;;;;;5345288;26;19926;-52
2024/04/23 00:16:39;;;;;;;7.05;4.25;;;3.10;99.90;;;;;;5314473;26;19993;-53
2024/04/23 00:19:05;;;;;;;9.10;4.50;;;3.10;99.90;;;;;;5314447;26;20005;-50
2024/04/23 00:21:30;;;;;;;4.68;4.03;;;3.00;99.90;;;;;;5314398;26;20066;-50
2024/04/23 00:23:56;;;;;;;9.65;4.80;;;3.00;99.90;;;;;;5314319;26;20067;-54
2024/04/23 00:26:22;;;;;;;6.57;4.97;;;3.00;99.90;;;;;;5344942;26;19997;-53
2024/04/23 00:28:47;;;;;;;6.82;4.03;;;2.80;99.90;;;;;;5344819;26;20063;-52
2024/04/23 00:31:13;;;;;;;7.93;4.45;;;2.80;99.90;;;;;;5344356;26;20364;-51
2024/04/23 00:33:38;;;;;;;7.82;4.15;;;2.80;99.90;;;;;;5344679;26;20005;-53
2024/04/23 00:36:04;;;;;;;5.05;4.55;;;2.80;99.90;;;;;;5314498;26;19992;-48
2024/04/23 00:38:29;;;;;;;8.30;5.25;;;2.60;99.90;;;;;;5344751;26;19993;-50
2024/04/23 00:40:55;;;;;;;5.32;3.80;;;2.60;99.90;;;;;;5313671;26;19993;-53
2024/04/23 00:43:20;;;;;;;6.13;3.83;;;2.60;99.90;;;;;;5314321;26;20111;-50
2024/04/23 00:45:49;;;;;;;4.85;4.32;;;2.60;99.90;;;;;;5344615;26;19993;-49
2024/04/23 00:48:17;;;;;;;5.65;4.70;;;2.50;99.90;;;;;;5344590;26;20464;-51
2024/04/23 00:50:45;;;;;;;8.45;4.07;;;2.50;99.90;;;;;;5344356;26;20001;-52
2024/04/23 00:53:13;;;;;;;8.48;5.28;;;2.60;99.90;;;;;;5343954;26;20007;-51
2024/04/23 00:55:39;;;;;;;5.15;4.20;;;2.70;99.90;;;;;;5344458;26;19997;-52
2024/04/23 00:58:05;;;;;;;8.32;5.22;;;2.70;99.90;;;;;;5344537;26;19993;-49
2024/04/23 01:00:31;;;;;;;8.73;5.13;;;2.70;99.90;;;;;;5344373;26;20009;-51
2024/04/23 01:02:57;;;;;;;6.60;5.22;;;2.50;99.90;;;;;;5344591;26;20029;-49
2024/04/23 01:05:23;;;;;;;8.68;5.03;;;2.70;99.90;;;;;;5344685;26;20005;-52
2024/04/23 01:07:48;;;;;;;6.32;4.18;;;2.80;99.90;;;;;;5344771;26;19997;-53
2024/04/23 01:10:14;;;;;;;4.97;4.50;;;2.80;99.90;;;;;;5344314;26;20569;-56
2024/04/23 01:12:39;;;;;;;4.60;4.20;;;2.80;99.90;;;;;;5344039;26;19996;-55
2024/04/23 01:15:07;;;;;;;7.30;4.97;;;2.70;99.90;;;;;;5344387;26;19997;-52
2024/04/23 01:17:33;;;;;;;7.47;4.68;;;2.70;99.90;;;;;;5351023;26;20374;-53
2024/04/23 01:20:01;;;;;;;4.22;3.85;;;2.70;99.90;;;;;;5320698;26;19997;-54
2024/04/23 01:22:33;;;;;;;6.75;4.55;;;2.70;99.90;;;;;;5350464;26;20005;-52
2024/04/23 01:25:05;;;;;;;7.00;4.72;;;2.70;99.90;;;;;;5351038;26;20084;-53
2024/04/23 01:27:32;;;;;;;13.15;5.15;;;2.50;99.90;;;;;;5351826;26;20088;-55
2024/04/23 01:29:59;;;;;;;7.25;5.10;;;2.50;99.90;;;;;;5351671;26;20008;-54
2024/04/23 01:32:26;;;;;;;6.80;4.88;;;2.50;99.90;;;;;;5350960;26;20400;-50
2024/04/23 01:34:53;;;;;;;5.28;4.38;;;2.50;99.90;;;;;;5351219;26;20005;-50
2024/04/23 01:37:21;;;;;;;7.13;4.70;;;2.50;99.90;;;;;;5320225;26;19997;-48
2024/04/23 01:39:46;;;;;;;8.80;4.65;;;2.50;99.90;;;;;;5351088;26;19996;-50
2024/04/23 01:42:12;;;;;;;6.95;5.07;;;2.50;99.90;;;;;;5320141;26;20011;-49
2024/04/23 01:44:39;;;;;;;6.90;4.45;;;2.50;99.90;;;;;;5350814;26;20008;-51
2024/04/23 01:47:05;;;;;;;5.72;4.35;;;2.50;99.90;;;;;;5351188;26;19997;-53
2024/04/23 01:49:31;;;;;;;7.03;4.63;;;2.50;99.90;;;;;;5351535;26;20001;-50
2024/04/23 01:51:56;;;;;;;6.80;4.63;;;2.40;99.90;;;;;;5350475;26;19993;-51
2024/04/23 01:54:23;;;;;;;7.13;4.65;;;2.40;99.90;;;;;;5320528;26;19997;-50
2024/04/23 01:56:49;;;;;;;7.47;5.38;;;2.30;99.90;;;;;;5320021;26;20040;-51
2024/04/23 01:59:14;;;;;;;5.15;4.65;;;2.40;99.90;;;;;;5350928;26;19997;-51
2024/04/23 02:01:44;;;;;;;4.95;4.45;;;2.40;99.90;;;;;;5350277;26;20059;-49
2024/04/23 02:04:11;;;;;;;6.90;5.28;;;2.30;99.90;;;;;;5350560;26;19997;-51
2024/04/23 02:06:37;;;;;;;9.55;4.57;;;2.20;99.90;;;;;;5350529;26;19997;-50
2024/04/23 02:09:03;;;;;;;6.15;4.30;;;2.20;99.90;;;;;;5350571;26;20365;-52
2024/04/23 02:11:29;;;;;;;9.65;6.75;;;2.10;99.90;;;;;;5319459;26;20005;-49
2024/04/23 02:13:55;;;;;;;6.45;4.88;;;2.10;99.90;;;;;;5350452;26;19997;-53
2024/04/23 02:16:20;;;;;;;10.90;4.40;;;2.00;99.90;;;;;;5350567;26;20398;-50
2024/04/23 02:18:46;;;;;;;5.53;4.93;;;2.00;99.90;;;;;;5320045;26;20000;-52
2024/04/23 02:21:11;;;;;;;5.60;4.25;;;2.00;99.90;;;;;;5349956;26;20081;-51
2024/04/23 02:23:37;;;;;;;5.72;4.00;;;2.00;99.90;;;;;;5350314;26;20012;-51
2024/04/23 02:26:03;;;;;;;5.03;4.53;;;2.00;99.90;;;;;;5350569;26;20012;-53
2024/04/23 02:28:28;;;;;;;5.85;4.95;;;2.10;99.90;;;;;;5346091;26;19997;-53
2024/04/23 02:30:54;;;;;;;4.30;3.90;;;2.10;99.90;;;;;;5315857;26;20344;-50
2024/04/23 02:33:19;;;;;;;4.53;3.63;;;2.10;99.90;;;;;;5346817;26;20001;-51
2024/04/23 02:35:45;;;;;;;4.88;4.10;;;2.10;99.90;;;;;;5346591;26;20001;-53
2024/04/23 02:38:11;;;;;;;5.60;4.30;;;2.10;99.90;;;;;;5346318;26;20008;-50
2024/04/23 02:40:36;;;;;;;5.20;4.53;;;2.20;99.90;;;;;;5346128;26;20070;-51
2024/04/23 02:43:01;;;;;;;6.68;4.47;;;2.20;99.90;;;;;;5315379;26;19997;-52
2024/04/23 02:45:27;;;;;;;7.55;3.97;;;2.20;99.90;;;;;;5315763;26;20001;-52
2024/04/23 02:47:52;;;;;;;4.38;3.92;;;2.10;99.90;;;;;;5346004;26;20007;-52
2024/04/23 02:50:18;;;;;;;5.63;4.13;;;2.10;99.90;;;;;;5346123;26;20000;-51
2024/04/23 02:52:43;;;;;;;9.55;4.15;;;2.10;99.90;;;;;;5345476;26;19997;-52
2024/04/23 02:55:09;;;;;;;8.60;4.03;;;2.10;99.90;;;;;;5346331;26;20001;-51
2024/04/23 02:57:34;;;;;;;6.93;4.63;;;2.10;99.90;;;;;;5346102;26;20028;-50
2024/04/23 03:00:00;;;;;;;4.43;3.92;;;2.10;99.90;;;;;;5346045;26;20001;-53
2024/04/23 03:02:25;;;;;;;5.10;4.53;;;2.10;99.90;;;;;;5345490;26;20001;-48
2024/04/23 03:04:51;;;;;;;5.63;4.88;;;2.10;99.90;;;;;;5346040;26;20001;-52
2024/04/23 03:07:16;;;;;;;5.50;3.88;;;2.10;99.90;;;;;;5345982;26;20435;-49
2024/04/23 03:09:42;;;;;;;5.07;4.60;;;2.10;99.90;;;;;;5346331;26;19996;-49
2024/04/23 03:12:07;;;;;;;8.25;4.50;;;2.10;99.90;;;;;;5345385;26;20474;-49
2024/04/23 03:14:33;;;;;;;5.55;4.68;;;2.10;99.90;;;;;;5315479;26;20005;-51
2024/04/23 03:16:58;;;;;;;5.28;4.78;;;1.90;99.90;;;;;;5286689;26;20334;-53
2024/04/23 03:19:25;;;;;;;7.55;4.32;;;1.90;99.90;;;;;;5345634;26;20099;-52
2024/04/23 03:21:53;;;;;;;6.68;5.28;;;1.90;99.90;;;;;;5345354;26;20029;-51
2024/04/23 03:24:19;;;;;;;5.65;4.07;;;1.90;99.90;;;;;;5345789;26;20403;-53
2024/04/23 03:26:44;;;;;;;4.80;4.30;;;1.90;99.90;;;;;;5315542;26;20013;-50
2024/04/23 03:29:10;;;;;;;6.07;4.57;;;1.90;99.90;;;;;;5345866;26;20372;-53
2024/04/23 03:31:35;;;;;;;5.88;4.55;;;1.80;99.90;;;;;;5345172;26;20024;-52
2024/04/23 03:34:01;;;;;;;7.07;4.50;;;1.80;99.90;;;;;;5345738;26;20008;-51
2024/04/23 03:36:28;;;;;;;5.93;4.70;;;;;;;;;;5345534;26;20008;-52
2024/04/23 03:38:53;;;;;;;5.10;4.60;;;1.80;99.90;;;;;;5314912;26;20452;-50
2024/04/23 03:41:19;;;;;;;5.78;4.50;;;1.90;99.90;;;;;;5314812;26;19993;-52
2024/04/23 03:43:44;;;;;;;5.88;4.32;;;1.80;99.90;;;;;;5315200;26;20079;-53
2024/04/23 03:46:10;;;;;;;4.97;4.15;;;1.70;99.90;;;;;;5314939;26;20009;-50
2024/04/23 03:48:35;;;;;;;5.90;4.22;;;1.70;99.90;;;;;;5345424;26;20312;-51
2024/04/23 03:51:01;;;;;;;7.50;4.45;;;1.70;99.90;;;;;;5344888;26;20497;-50
2024/04/23 03:53:26;;;;;;;6.72;4.03;;;1.80;99.90;;;;;;5314824;26;19997;-48
2024/04/23 03:55:52;;;;;;;5.15;4.07;;;1.70;99.90;;;;;;5345423;26;19997;-47
2024/04/23 03:58:17;;;;;;;5.60;4.43;;;1.70;99.90;;;;;;5345130;26;20005;-52
2024/04/23 04:00:43;;;;;;;6.72;4.50;;;1.70;99.90;;;;;;5345331;26;20007;-49
2024/04/23 04:06:06;;;;;;;4.78;4.30;;;1.60;99.90;;;;;;5345468;26;20388;-49
2024/04/23 04:08:33;;;;;;;7.10;4.05;;;1.70;99.90;;;;;;5345299;26;20090;-49
2024/04/23 04:10:59;;;;;;;7.30;4.15;;;1.70;99.90;;;;;;5344549;26;19997;-49
2024/04/23 04:13:24;;;;;;;4.45;4.05;;;1.60;99.90;;;;;;5345215;26;20479;-55
2024/04/23 04:15:50;;;;;;;6.95;4.32;;;1.70;99.90;;;;;;5345195;26;20391;-53
2024/04/23 04:18:16;;;;;;;8.38;4.47;;;1.60;99.90;;;;;;5344900;26;20001;-49
2024/04/23 04:20:41;;;;;;;5.40;4.30;;;1.60;99.90;;;;;;5344813;26;20003;-51
2024/04/23 04:23:07;;;;;;;6.53;4.25;;;1.60;99.90;;;;;;5344303;26;19997;-53
2024/04/23 04:25:32;;;;;;;4.72;4.13;;;1.60;99.90;;;;;;5345100;26;20086;-49
2024/04/23 04:27:58;;;;;;;5.85;4.38;;;1.60;99.90;;;;;;5345332;26;20012;-50
2024/04/23 04:30:24;;;;;;;4.43;4.03;;;1.60;99.90;;;;;;5345176;26;20348;-53
2024/04/23 04:32:49;;;;;;;4.78;4.38;;;1.60;99.90;;;;;;5313988;26;20011;-52
2024/04/23 04:35:15;;;;;;;5.75;4.32;;;1.50;99.90;;;;;;5344755;26;20001;-53
2024/04/23 04:37:40;;;;;;;4.85;4.18;;;1.50;99.90;;;;;;5344874;26;20338;-51
2024/04/23 04:40:06;;;;;;;9.05;4.00;;;1.50;99.90;;;;;;5345190;26;19996;-50
2024/04/23 04:42:32;;;;;;;5.85;4.70;;;1.60;99.90;;;;;;5344342;26;20001;-49
2024/04/23 04:44:57;;;;;;;5.07;3.83;;;1.60;99.90;;;;;;5344877;26;20007;-46
2024/04/23 04:47:23;;;;;;;8.60;4.05;;;1.50;99.90;;;;;;5314043;26;20356;-52
2024/04/23 04:49:48;;;;;;;5.88;4.18;;;1.50;99.90;;;;;;5344264;26;20001;-52
2024/04/23 04:52:14;;;;;;;8.85;4.68;;;1.70;99.90;;;;;;5342783;26;20503;-57
2024/04/23 04:54:39;;;;;;;4.93;4.40;;;1.70;99.90;;;;;;5344416;26;20470;-50
2024/04/23 04:57:05;;;;;;;5.82;4.50;;;1.70;99.90;;;;;;5344359;26;19997;-53
2024/04/23 04:59:30;;;;;;;7.43;4.15;;;1.80;99.90;;;;;;5344579;26;20000;-50
2024/04/23 05:01:56;;;;;;;7.03;4.40;;;1.90;99.90;;;;;;5343831;26;19997;-52
2024/04/23 05:04:21;;;;;;;6.85;3.80;;;2.00;99.90;;;;;;5313777;26;20030;-50
2024/04/23 05:06:47;;;;;;;8.38;3.78;;;2.10;99.90;;;;;;5344170;26;20009;-51
2024/04/23 05:09:13;;;;;;;5.85;4.25;;;2.20;99.90;;;;;;5313704;26;20352;-50
2024/04/23 05:11:39;;;;;;;4.38;3.97;;;2.40;99.90;;;;;;5368183;21;20007;-48
2024/04/23 05:14:05;;;;;;;6.20;4.18;;;2.70;99.90;;;;;;5375437;26;19997;-48
2024/04/23 05:16:31;;;;;;;4.50;3.90;;;2.90;99.90;;;;;;5407863;26;19996;-49
2024/04/23 05:18:57;;;;;;;3.72;3.33;;;3.30;99.90;;;;;;5379408;26;20065;-51
2024/04/23 05:21:23;;;;;;;11.38;4.28;;;3.50;99.90;;;;;;5376491;26;20000;-46
2024/04/23 05:23:48;;;;;;;4.63;3.42;;;3.80;99.90;;;;;;5344448;26;19993;-46
2024/04/23 05:26:13;;;;;;;4.60;3.70;;;4.10;99.90;;;;;;5342418;26;19997;-48
2024/04/23 05:28:39;;;;;;;5.05;3.30;;;4.30;99.90;;;;;;5344482;26;20001;-51
2024/04/23 05:33:48;;;;;;;6.90;3.50;;;4.40;99.90;;;;;;5343985;26;20105;-50
2024/04/23 05:36:14;;;;;;;4.85;4.13;;;4.50;99.90;;;;;;5342202;26;19997;-48
2024/04/23 05:38:41;;;;;;;4.18;3.75;;;4.50;99.90;;;;;;5343854;26;20007;-53
2024/04/23 05:41:06;;;;;;;3.17;2.90;;;4.60;99.90;;;;;;5343448;26;20464;-49
2024/04/23 05:43:32;;;;;;;4.18;3.78;;;4.40;99.90;;;;;;5343826;26;19992;-50
2024/04/23 05:45:57;;;;;;;4.15;3.70;;;4.40;99.90;;;;;;5343932;26;20004;-47
2024/04/23 05:49:01;;;;;;;7.32;3.55;;;4.30;99.90;;;;;;5341819;26;20500;-48
2024/04/23 05:52:04;;;;;;;8.50;5.13;;;4.40;99.90;;;;;;5341222;26;20008;-47
2024/04/23 05:55:07;;;;;;;9.10;4.53;;;4.40;99.90;;;;;;5343664;26;20008;-53
2024/04/23 05:57:33;;;;;;;4.32;3.88;;;4.30;99.90;;;;;;5342388;26;20013;-48
2024/04/23 05:59:58;;;;;;;4.40;3.92;;;4.20;99.90;;;;;;5341919;26;20018;-48
2024/04/23 06:02:25;;;;;;;8.05;3.65;;;4.20;99.90;;;;;;5342503;26;20074;-47
2024/04/23 06:04:50;;;;;;;4.85;4.13;;;4.20;99.90;;;;;;5346214;26;20007;-53
2024/04/23 06:07:17;;;;;;;4.40;3.72;;;4.30;99.90;;;;;;5345075;26;20099;-49
2024/04/23 06:09:43;;;;;;;4.47;3.85;;;4.50;99.90;;;;;;5346597;26;20008;-49
2024/04/23 06:12:08;;;;;;;4.53;3.63;;;4.70;99.90;;;;;;5343987;26;20074;-50
2024/04/23 06:14:40;;;;;;;8.88;3.70;;;5.20;99.90;;;;;;5344959;26;19997;-45
2024/04/23 06:17:22;;;;;;;5.78;3.72;;;5.10;99.90;;;;;;5346639;26;20325;-47
2024/04/23 06:19:51;;;;;;;4.00;3.40;;;5.60;99.90;;;;;;5346801;26;20000;-52
2024/04/23 06:22:21;;;;;;;3.80;3.30;;;6.50;99.90;;;;;;5343912;26;20007;-47
2024/04/23 06:24:50;;;;;;;3.45;2.97;;;6.50;99.90;;;;;;5346312;26;20001;-49
2024/04/23 06:27:16;;;;;;;8.55;3.03;;;6.70;99.90;;;;;;5346533;26;20001;-53
2024/04/23 06:29:44;;;;;;;3.42;3.10;;;7.00;99.90;;;;;;5347044;26;19997;-52
2024/04/23 06:32:12;;;;;;;6.05;3.65;;;7.10;99.90;;;;;;5344530;26;20438;-51
2024/04/23 06:34:37;;;;;;;3.33;3.03;;;7.60;99.90;;;;;;5344883;26;20405;-46
2024/04/23 06:37:03;;;;;;;8.02;2.80;;;7.60;99.90;;;;;;5346382;26;20008;-48
2024/04/23 06:39:28;;;;;;;5.03;3.88;;;7.80;99.60;;;;;;5346571;26;20012;-47
2024/04/23 06:41:54;;;;;;;3.20;3.00;;;8.30;98.90;;;;;;5346643;26;20008;-51
2024/04/23 06:44:20;;;;;;;8.98;3.08;;;8.70;99.00;;;;;;5346910;26;20012;-48
2024/04/23 06:46:45;;;;;;;6.00;2.83;;;8.90;97.70;;;;;;5346638;26;20340;-48
2024/04/23 06:49:11;;;;;;;5.03;3.08;;;9.20;96.80;;;;;;5345033;26;20004;-48
2024/04/23 06:51:36;;;;;;;3.28;2.97;;;9.30;96.90;;;;;;5346075;26;20012;-47
2024/04/23 06:54:02;;;;;;;3.80;2.28;;;10.60;95.30;;;;;;5344626;26;20522;-50
2024/04/23 06:56:27;;;;;;;3.00;2.38;;;11.00;94.90;;;;;;5347331;26;20328;-47
2024/04/23 06:58:53;;;;;;;3.42;2.25;;;11.90;93.00;;;;;;5345602;26;20005;-48
2024/04/23 07:01:18;;;;;;;3.78;2.55;;;11.80;92.00;;;;;;5346255;26;20000;-52
2024/04/23 07:03:44;;;;;;;2.88;2.40;;;12.70;90.70;;;;;;5346287;26;20008;-47
2024/04/23 07:06:09;;;;;;;3.65;2.30;;;12.70;87.60;;;;;;5338985;26;20015;-55
2024/04/23 07:08:35;;;;;;;2.88;2.45;;;12.50;88.30;;;;;;5324327;26;20005;-56
2024/04/23 07:11:00;;;;;;;2.60;2.40;;;12.90;88.00;;;;;;5346102;26;20000;-49
2024/04/23 07:13:26;;;;;;;5.53;2.50;;;13.00;88.20;;;;;;5351178;26;20012;-52
2024/04/23 07:15:51;;;;;;;4.80;2.50;;;13.20;86.10;;;;;;5312423;27;20458;-55
2024/04/23 07:18:17;;;;;;;2.60;2.28;;;13.00;85.50;;;;;;5312101;27;20009;-55
2024/04/23 07:20:42;;;;;;;4.25;2.28;;;13.00;87.30;;;;;;5311608;26;20011;-56
2024/04/23 07:23:08;;;;;;;2.38;2.20;;;13.40;84.70;;;;;;5327547;26;20005;-53
2024/04/23 07:25:33;;;;;;;2.28;1.90;;;13.90;83.70;;;;;;5344410;26;20318;-55
2024/04/23 07:27:59;;;;;;;5.97;2.15;;;13.80;82.40;;;;;;5342918;26;19997;-50
2024/04/23 07:30:26;;;;;;;3.17;2.60;;;14.00;81.20;;;;;;5344657;26;20005;-51
2024/04/23 07:32:55;;;;;;;4.75;2.10;;;14.50;77.60;;;;;;5345535;26;20016;-53
2024/04/23 07:35:21;;;;;;;2.53;2.28;;;14.50;78.20;;;;;;5345455;26;20005;-48
2024/04/23 07:37:47;;;;;;;3.20;2.30;;;14.50;78.10;;;;;;5311722;27;20356;-51
2024/04/23 07:40:12;;;;;;;2.47;2.20;;;13.70;78.80;;;;;;5322507;26;20001;-49
2024/04/23 07:42:38;;;;;;;4.30;3.03;;;13.30;80.50;;;;;;5344968;26;19997;-50
2024/04/23 07:45:04;;;;;;;3.15;2.80;;;12.70;81.60;;;;;;5345052;26;19997;-50
2024/04/23 07:47:29;;;;;;;2.85;2.20;;;13.10;82.40;;;;;;5345196;26;20001;-49
2024/04/23 07:49:55;;;;;;;4.70;2.50;;;13.70;81.90;;;;;;5345096;26;20001;-49
2024/04/23 07:52:20;;;;;;;3.90;2.70;;;14.40;80.20;;;;;;5344701;26;20448;-54
2024/04/23 07:54:50;;;;;;;2.42;2.20;;;14.90;78.70;;;;;;5345150;26;19997;-48
2024/04/23 07:57:16;;;;;;;3.67;2.47;;;15.70;77.90;;;;;;5336111;26;20338;-53
2024/04/23 07:59:42;;;;;;;2.40;2.20;;;16.80;76.20;;;;;;5310657;26;20101;-50
2024/04/23 08:02:07;;;;;;;2.65;2.30;;;17.00;72.00;;;;;;5323002;26;20012;-51
2024/04/23 08:04:33;;;;;;;2.78;2.38;;;16.40;70.70;;;;;;5345006;26;19997;-53
2024/04/23 08:06:58;;;;;;;5.80;2.88;;;16.20;72.10;;;;;;5345379;26;20025;-50
2024/04/23 08:09:24;;;;;;;2.40;2.20;;;15.90;72.50;;;;;;5345493;26;20444;-52
2024/04/23 08:11:49;;;;;;;3.88;2.35;;;16.70;72.80;;;;;;5342751;26;20001;-53
2024/04/23 08:14:15;;;;;;;4.38;2.60;;;17.20;72.20;;;;;;5343140;26;20467;-51
2024/04/23 08:16:40;;;;;;;4.47;2.95;;;17.20;69.40;;;;;;5341901;26;19996;-49
2024/04/23 08:19:07;;;;;;;4.35;2.50;;;16.90;70.10;;;;;;5344646;26;20352;-53
2024/04/23 08:21:32;;;;;;;6.35;2.50;;;16.80;69.50;;;;;;5344593;26;20007;-49
2024/04/23 08:23:58;;;;;;;3.65;2.50;;;17.30;69.10;;;;;;5344814;26;20012;-50
2024/04/23 08:26:23;;;;;;;3.47;3.03;;;17.10;68.20;;;;;;5343273;26;20459;-55
2024/04/23 08:28:52;;;;;;;3.00;2.70;;;16.10;68.40;;;;;;5332839;26;20503;-52
2024/04/23 08:31:19;;;;;;;2.20;2.10;;;16.20;69.70;;;;;;5307306;27;20005;-51
2024/04/23 08:33:44;;;;;;;2.67;2.47;;;16.50;68.30;;;;;;5343428;26;20001;-51
2024/04/23 08:36:09;;;;;;;2.65;2.45;;;16.40;69.50;;;;;;5344575;26;20008;-48
2024/04/23 08:38:35;;;;;;;3.00;2.38;;;16.60;67.90;;;;;;5344947;26;20000;-54
2024/04/23 08:41:01;;;;;;;2.92;2.38;;;16.90;67.70;;;;;;5344240;26;20005;-53
2024/04/23 08:43:31;;;;;;;3.30;2.13;;;17.20;67.00;;;;;;5344832;26;20075;-54
2024/04/23 08:45:58;;;;;;;3.30;2.25;;;17.10;66.40;;;;;;5344737;26;20019;-50
2024/04/23 08:48:27;;;;;;;3.78;2.83;;;17.20;66.10;;;;;;5344737;26;20033;-48
2024/04/23 08:50:55;;;;;;;3.55;2.58;;;17.00;67.40;;;;;;5344113;26;19996;-51
2024/04/23 08:53:22;;;;;;;4.45;2.80;;;17.20;67.10;;;;;;5344485;26;19997;-50
2024/04/23 08:55:49;;;;;;;2.88;2.63;;;16.90;67.00;;;;;;5342056;26;20005;-49
2024/04/23 08:58:16;;;;;;;6.63;3.28;;;16.40;67.80;;;;;;5344439;26;20015;-55
2024/04/23 09:00:41;;;;;;;3.67;3.20;;;16.20;67.90;;;;;;5344578;26;19993;-51
2024/04/23 09:03:14;;;;;;;4.60;2.97;;;16.40;68.60;;;;;;5343888;26;20012;-50
2024/04/23 09:05:43;;;;;;;3.17;2.53;;;16.20;68.20;;;;;;5344085;26;19997;-54
2024/04/23 09:08:09;;;;;;;4.72;2.80;;;15.70;68.00;;;;;;5343694;26;20449;-50
2024/04/23 09:10:34;;;;;;;3.30;2.90;;;15.30;68.40;;;;;;5342304;26;20097;-48
2024/04/23 09:13:00;;;;;;;3.75;3.30;;;15.00;69.70;;;;;;5342568;26;20001;-50
2024/04/23 09:15:26;;;;;;;3.10;2.80;;;14.50;69.80;;;;;;5344366;26;20001;-50
2024/04/23 09:17:56;;;;;;;3.25;2.92;;;14.70;70.20;;;;;;5342026;26;20323;-50
2024/04/23 09:20:25;;;;;;;3.80;3.38;;;14.80;71.00;;;;;;5343922;26;20048;-50
2024/04/23 09:22:58;;;;;;;3.83;3.03;;;14.50;70.00;;;;;;5341556;26;20013;-58
2024/04/23 09:25:24;;;;;;;7.78;3.53;;;14.50;70.90;;;;;;5342526;26;20344;-58
2024/04/23 09:27:50;;;;;;;8.25;3.58;;;14.70;70.00;;;;;;5343451;26;20112;-54
2024/04/23 09:30:26;;;;;;;3.22;2.90;;;13.10;68.50;;;;;;5344710;26;20435;-50
2024/04/23 09:33:02;;;;;;;3.60;2.85;;;12.70;69.10;;;;;;5343637;26;20390;-50
2024/04/23 09:35:28;;;;;;;3.35;3.03;;;12.30;71.10;;;;;;5345666;26;20001;-53
2024/04/23 09:37:53;;;;;;;3.13;2.83;;;12.20;72.60;;;;;;5362715;26;20015;-47
2024/04/23 09:40:19;;;;;;;6.70;2.72;;;12.20;74.10;;;;;;5364652;26;20074;-51
2024/04/23 09:42:45;;;;;;;4.90;2.70;;;13.00;74.60;;;;;;5332064;26;20017;-49
2024/04/23 09:45:10;;;;;;;2.78;2.22;;;13.60;74.10;;;;;;5327651;26;20013;-55
2024/04/23 09:47:39;;;;;;;2.60;2.22;;;13.80;70.70;;;;;;5332107;26;20587;-51
2024/04/23 09:50:08;;;;;;;3.75;2.53;;;13.80;71.30;;;;;;5388191;26;20015;-53
2024/04/23 09:52:35;;;;;;;3.33;2.40;;;13.60;70.80;;;;;;5323710;26;20005;-57
2024/04/23 09:55:01;;;;;;;4.93;2.83;;;13.90;69.80;;;;;;5346644;26;20370;-58
2024/04/23 09:57:27;;;;;;;2.90;2.38;;;12.80;70.20;;;;;;5328911;26;20006;-57
2024/04/23 09:59:53;;;;;;;3.75;3.00;;;12.40;70.80;;;;;;5334909;26;20363;-52
2024/04/23 10:02:25;;;;;;;4.20;3.00;;;11.80;71.50;;;;;;5323129;26;20000;-56
2024/04/23 10:05:04;;;;;;;4.55;2.70;;;11.70;72.10;;;;;;5318430;26;20079;-59
2024/04/23 10:07:41;;;;;;;3.03;2.72;;;11.60;73.10;;;;;;5317813;26;20000;-55
2024/04/23 10:10:08;;;;;;;2.90;2.60;;;12.10;73.40;;;;;;5326025;26;20447;-55
2024/04/23 10:12:41;;;;;;;2.55;2.35;;;12.10;71.70;;;;;;5340256;26;20011;-57
2024/04/23 10:15:26;;;;;;;3.22;2.47;;;12.20;70.30;;;;;;5331289;26;20006;-55
2024/04/23 10:18:02;;;;;;;2.42;2.08;;;11.80;70.90;;;;;;5312177;26;20433;-56
2024/04/23 10:20:35;;;;;;;2.45;2.35;;;11.30;71.30;;;;;;5312110;26;20041;-57
2024/04/23 10:23:01;;;;;;;2.53;2.33;;;11.30;73.50;;;;;;5308401;26;20021;-58
2024/04/23 10:25:27;;;;;;;2.92;2.72;;;11.70;71.50;;;;;;5307913;26;19997;-52
2024/04/23 10:27:55;;;;;;;2.65;2.45;;;11.90;70.10;;;;;;5334392;26;20356;-53
2024/04/23 10:30:23;;;;;;;4.63;2.55;;;11.80;71.50;;;;;;5346550;26;20001;-63
2024/04/23 10:32:49;;;;;;;3.08;2.53;;;12.00;69.60;;;;;;5343187;26;20043;-55
2024/04/23 10:35:16;;;;;;;2.42;2.22;;;12.10;71.40;;;;;;5346251;26;20008;-62
2024/04/23 10:37:43;;;;;;;2.30;2.10;;;12.10;69.00;;;;;;5346182;26;20004;-53
2024/04/23 10:40:11;;;;;;;3.72;2.38;;;11.80;69.10;;;;;;5346228;26;20000;-49
2024/04/23 10:42:37;;;;;;;2.58;2.38;;;11.80;69.10;;;;;;5346115;26;20012;-57
2024/04/23 10:45:03;;;;;;;4.15;2.40;;;11.70;69.40;;;;;;5349246;26;20352;-56
2024/04/23 10:47:28;;;;;;;2.53;2.33;;;11.50;70.60;;;;;;5345937;26;20330;-58
2024/04/23 10:49:55;;;;;;;6.03;2.72;;;11.20;72.80;;;;;;5344980;26;20102;-59
2024/04/23 10:52:22;;;;;;;2.97;2.47;;;11.50;75.00;;;;;;5346325;26;20001;-58
2024/04/23 10:54:50;;;;;;;12.65;8.15;;;11.60;71.40;;;;;;5346343;26;20000;-60
2024/04/23 10:57:15;;;;;;;7.05;5.95;;;11.60;70.80;;;;;;5339706;26;20080;-59
2024/04/23 10:59:41;;;;;;;3.17;2.72;;;11.50;71.80;;;;;;5328872;26;20015;-60
2024/04/23 11:02:11;;;;;;;4.57;3.00;;;11.60;70.60;;;;;;5351250;26;20004;-54
2024/04/23 11:04:43;;;;;;;3.30;2.60;;;11.60;71.00;;;;;;5346246;26;19997;-53
2024/04/23 11:07:11;;;;;;;3.67;3.08;;;11.60;70.50;;;;;;5345912;26;20411;-58
2024/04/23 11:09:43;;;;;;;4.85;2.67;;;11.30;70.10;;;;;;5311404;27;20455;-54
2024/04/23 11:12:19;;;;;;;2.17;1.95;;;11.10;70.40;;;;;;5311074;26;20013;-51
2024/04/23 11:14:45;;;;;;;2.70;2.05;;;11.10;68.70;;;;;;5311520;27;20002;-50
2024/04/23 11:17:11;;;;;;;4.60;2.78;;;11.20;68.80;;;;;;5340539;26;20072;-52
2024/04/23 11:19:38;;;;;;;7.93;2.45;;;11.30;69.60;;;;;;5347187;26;20013;-55
2024/04/23 11:22:09;;;;;;;9.25;2.78;;;11.40;70.80;;;;;;5344186;26;20005;-53
2024/04/23 11:24:44;;;;;;;2.78;2.40;;;11.40;70.50;;;;;;5345620;26;20009;-58
2024/04/23 11:27:15;;;;;;;4.47;2.35;;;11.20;70.40;;;;;;5345125;26;20012;-54
2024/04/23 11:29:43;;;;;;;3.20;2.42;;;11.20;70.00;;;;;;5339884;26;20009;-51
2024/04/23 11:32:09;;;;;;;2.53;2.33;;;11.40;70.70;;;;;;5346080;26;20465;-54
2024/04/23 11:34:46;;;;;;;2.42;2.22;;;11.40;71.50;;;;;;5345869;26;20015;-52
2024/04/23 11:37:28;;;;;;;4.47;2.65;;;11.30;71.40;;;;;;5344937;26;20005;-53
2024/04/23 11:39:58;;;;;;;2.63;2.42;;;12.00;70.10;;;;;;5345826;26;20004;-58
2024/04/23 11:42:31;;;;;;;2.38;2.17;;;11.10;69.30;;;;;;5345355;26;20001;-55
2024/04/23 11:45:00;;;;;;;3.47;2.25;;;11.20;69.40;;;;;;5345792;26;20008;-55
2024/04/23 11:47:26;;;;;;;3.25;2.30;;;11.40;69.10;;;;;;5345123;26;20356;-56
2024/04/23 11:49:52;;;;;;;6.38;2.10;;;11.60;70.20;;;;;;5344990;26;20012;-48
2024/04/23 11:52:20;;;;;;;7.15;2.05;;;11.80;73.80;;;;;;5345061;26;19997;-48
2024/04/23 11:54:46;;;;;;;2.60;2.40;;;11.70;71.00;;;;;;5344243;26;20013;-54
2024/04/23 11:57:11;;;;;;;5.03;3.25;;;11.40;70.10;;;;;;5345824;26;20005;-55
2024/04/23 11:59:43;;;;;;;3.00;2.60;;;11.40;69.90;;;;;;5347393;26;20015;-54
2024/04/23 12:02:09;;;;;;;5.88;2.38;;;11.50;71.60;;;;;;5347394;26;20559;-54
2024/04/23 12:04:37;;;;;;;3.28;2.63;;;11.50;72.50;;;;;;5345784;26;20444;-52
2024/04/23 12:07:03;;;;;;;28.80;15.25;;;11.60;72.70;;;;;;5345446;26;20029;-52
2024/04/23 12:09:30;;;;;;;3.13;2.25;;;11.70;72.00;;;;;;5340064;26;20005;-52
2024/04/23 12:11:56;;;;;;;8.30;3.40;;;11.60;70.90;;;;;;5344816;26;19997;-53
2024/04/23 12:14:24;;;;;;;4.25;2.70;;;11.80;74.40;;;;;;5340839;26;20009;-54
2024/04/23 12:16:50;;;;;;;2.67;2.00;;;11.70;70.00;;;;;;5344814;26;20025;-55
2024/04/23 12:19:15;;;;;;;4.07;2.47;;;11.80;70.40;;;;;;5343519;26;20347;-52
2024/04/23 12:21:43;;;;;;;2.47;2.00;;;11.80;68.30;;;;;;5344451;26;19996;-51
2024/04/23 12:24:16;;;;;;;3.70;1.98;;;11.70;71.30;;;;;;5345058;26;20005;-55
2024/04/23 12:26:42;;;;;;;3.10;2.15;;;11.60;68.80;;;;;;5342927;26;20005;-51
2024/04/23 12:29:08;;;;;;;2.40;2.22;;;11.30;68.20;;;;;;5344723;26;20001;-51
2024/04/23 12:31:34;;;;;;;2.17;1.85;;;11.10;66.60;;;;;;5344134;26;20337;-51
2024/04/23 12:33:59;;;;;;;2.25;2.08;;;11.20;66.60;;;;;;5344251;26;20005;-53
2024/04/23 12:36:26;;;;;;;3.95;1.92;;;11.10;66.60;;;;;;5344349;26;20004;-51
2024/04/23 12:38:52;;;;;;;2.30;1.90;;;11.00;67.20;;;;;;5344189;26;20011;-50
2024/04/23 12:41:19;;;;;;;3.53;2.03;;;11.00;66.60;;;;;;5344339;26;20440;-52
2024/04/23 12:43:45;;;;;;;3.20;2.30;;;11.00;67.40;;;;;;5343070;26;20001;-53
2024/04/23 12:46:12;;;;;;;1.95;1.83;;;11.00;69.50;;;;;;5345017;26;20000;-52
2024/04/23 12:48:39;;;;;;;3.45;2.25;;;11.10;68.70;;;;;;5345022;26;20544;-51
2024/04/23 12:51:04;;;;;;;2.00;1.88;;;11.20;67.90;;;;;;5344572;26;20463;-49
2024/04/23 12:53:30;;;;;;;2.47;1.90;;;11.20;67.30;;;;;;5345116;26;19997;-51
2024/04/23 12:55:56;;;;;;;4.43;2.65;;;11.30;69.20;;;;;;5345108;26;19996;-50
2024/04/23 12:58:22;;;;;;;3.13;2.45;;;11.30;66.80;;;;;;5345024;26;19997;-56